Time;durP1;ratioP1;P1;durP2;ratioP2;P2;SDS_P1;SDS_P2;PMS_P1;PMS_P2;Temp;Humidity;BMP_temperature;BMP_pressure;BME280_temperature;BME280_humidity;BME280_pressure;Samples;Min_cycle;Max_cycle;Signal;HPM_P1;HPM_P2
2024/01/03 00:00:47;;;;;;;;;;;;;;;22.00;38.54;98268.81;5138643;27;19920;-51
2024/01/03 00:03:12;;;;;;;;;;;;;;;;;;5143447;27;19911;-50
2024/01/03 00:05:38;;;;;;;;;;;;;;;21.95;38.68;98277.69;5139190;27;19911;-49
2024/01/03 00:08:05;;;;;;;;;;;;;;;21.94;39.01;98276.88;5137666;27;19923;-48
2024/01/03 00:10:30;;;;;;;;;;;;;;;21.92;38.69;98270.09;5141051;27;19915;-49
2024/01/03 00:12:55;;;;;;;;;;;;;;;21.91;38.72;98269.25;5137999;27;19943;-50
2024/01/03 00:15:36;;;;;;;;;;;;;;;21.88;38.68;98283.28;5137293;27;19938;-49
2024/01/03 00:18:04;;;;;;;;;;;;;;;21.87;38.84;98287.03;5139831;27;20381;-52
2024/01/03 00:20:30;;;;;;;;;;;;;;;21.86;38.73;98320.59;5141942;27;19915;-49
2024/01/03 00:22:55;;;;;;;;;;;;;;;21.83;38.98;98334.59;5141996;27;19919;-51
2024/01/03 00:25:20;;;;;;;;;;;;;;;21.83;38.74;98341.91;5137708;27;19919;-47
2024/01/03 00:27:45;;;;;;;;;;;;;;;21.79;38.78;98336.19;5117729;27;19912;-49
2024/01/03 00:30:11;;;;;;;;;;;;;;;21.78;39.07;98341.84;5134319;27;19915;-47
2024/01/03 00:32:36;;;;;;;;;;;;;;;21.75;38.72;98342.31;5129864;27;19998;-48
2024/01/03 00:35:01;;;;;;;;;;;;;;;21.71;38.88;98361.78;5144226;27;19923;-47
2024/01/03 00:37:27;;;;;;;;;;;;;;;21.68;38.59;98364.97;5138486;27;19915;-47
2024/01/03 00:39:54;;;;;;;;;;;;;;;21.66;38.91;98341.94;5139984;27;19938;-49
2024/01/03 00:42:19;;;;;;;;;;;;;;;21.63;38.77;98375.72;5135272;27;19927;-51
2024/01/03 00:44:44;;;;;;;;;;;;;;;21.60;39.10;98383.50;5140402;27;19911;-49
2024/01/03 00:47:09;;;;;;;;;;;;;;;21.57;38.61;98382.09;5137843;27;19911;-47
2024/01/03 00:49:34;;;;;;;;;;;;;;;21.56;39.02;98390.47;5143657;27;19911;-49
2024/01/03 00:51:59;;;;;;;;;;;;;;;21.53;38.93;98396.38;5143891;27;19911;-50
2024/01/03 00:54:25;;;;;;;;;;;;;;;21.51;38.87;98406.63;5139839;27;19911;-52
2024/01/03 00:56:50;;;;;;;;;;;;;;;21.50;38.82;98402.28;5138268;27;19947;-47
2024/01/03 00:59:15;;;;;;;;;;;;;;;21.48;38.89;98407.09;5139474;27;19911;-48
2024/01/03 01:01:40;;;;;;;;;;;;;;;21.08;39.10;98348.59;5137906;27;19912;-49
2024/01/03 01:04:06;;;;;;;;;;;;;;;21.46;39.00;98405.47;5140096;27;20365;-50
2024/01/03 01:06:31;;;;;;;;;;;;;;;21.44;39.31;98418.41;5129704;27;19937;-47
2024/01/03 01:08:57;;;;;;;;;;;;;;;21.44;39.23;98414.88;5140730;27;19919;-52
2024/01/03 01:11:22;;;;;;;;;;;;;;;21.43;39.35;98422.16;5133833;27;19919;-46
2024/01/03 01:13:47;;;;;;;;;;;;;;;21.42;39.26;98427.84;5142693;27;19916;-51
2024/01/03 01:16:13;;;;;;;;;;;;;;;21.42;39.25;98442.16;5141228;27;19923;-49
2024/01/03 01:18:38;;;;;;;;;;;;;;;21.41;39.04;98445.94;5140878;27;19958;-51
2024/01/03 01:21:03;;;;;;;;;;;;;;;21.40;39.33;98435.34;5141612;27;19919;-46
2024/01/03 01:23:28;;;;;;;;;;;;;;;21.38;39.19;98440.19;5139758;27;19926;-49
2024/01/03 01:25:54;;;;;;;;;;;;;;;21.38;39.44;98451.00;5133212;27;20369;-46
2024/01/03 01:28:19;;;;;;;;;;;;;;;21.37;39.35;98454.78;5139744;27;19923;-49
2024/01/03 01:30:44;;;;;;;;;;;;;;;21.36;39.23;98459.34;5136596;27;19912;-46
2024/01/03 01:33:09;;;;;;;;;;;;;;;21.35;39.32;98448.78;5137784;27;19918;-48
2024/01/03 01:35:34;;;;;;;;;;;;;;;21.35;39.51;98456.91;5141161;27;19911;-50
2024/01/03 01:38:03;;;;;;;;;;;;;;;21.32;39.34;98443.88;5143820;27;20378;-48
2024/01/03 01:40:28;;;;;;;;;;;;;;;21.31;39.61;98450.31;5134965;27;19915;-48
2024/01/03 01:42:54;;;;;;;;;;;;;;;21.29;39.49;98457.84;5141133;27;19935;-52
2024/01/03 01:45:19;;;;;;;;;;;;;;;21.28;39.39;98454.34;5140211;27;19968;-51
2024/01/03 01:47:44;;;;;;;;;;;;;;;21.26;39.67;98459.16;5137282;27;19922;-46
2024/01/03 01:50:09;;;;;;;;;;;;;;;21.24;39.64;98453.19;5135630;27;19915;-46
2024/01/03 01:52:34;;;;;;;;;;;;;;;21.22;39.44;98456.09;5126115;27;19916;-47
2024/01/03 01:55:00;;;;;;;;;;;;;;;21.22;39.51;98460.69;5133191;27;19912;-46
2024/01/03 01:57:25;;;;;;;;;;;;;;;21.20;39.43;98471.75;5138745;27;19926;-48
2024/01/03 01:59:50;;;;;;;;;;;;;;;21.19;39.83;98470.09;5130746;27;19919;-50
2024/01/03 02:02:15;;;;;;;;;;;;;;;21.18;39.84;98478.47;5129178;27;19911;-47
2024/01/03 02:04:40;;;;;;;;;;;;;;;21.17;39.79;98471.41;5125282;27;19912;-46
2024/01/03 02:07:06;;;;;;;;;;;;;;;21.15;39.91;98455.47;5137051;27;19912;-48
2024/01/03 02:09:31;;;;;;;;;;;;;;;21.15;39.76;98468.13;5127380;27;19915;-49
2024/01/03 02:11:56;;;;;;;;;;;;;;;21.13;39.74;98470.25;5136205;27;19912;-46
2024/01/03 02:14:21;;;;;;;;;;;;;;;21.11;39.60;98457.00;5142617;27;20381;-47
2024/01/03 02:16:46;;;;;;;;;;;;;;;21.10;39.77;98476.97;5137114;27;19915;-48
2024/01/03 02:19:12;;;;;;;;;;;;;;;21.09;39.51;98480.72;5137938;27;19912;-45
2024/01/03 02:21:37;;;;;;;;;;;;;;;21.08;39.64;98472.88;5135001;27;19937;-45
2024/01/03 02:24:02;;;;;;;;;;;;;;;21.06;39.68;98475.00;5137601;27;19911;-46
2024/01/03 02:26:27;;;;;;;;;;;;;;;21.04;39.59;98475.25;5136331;27;19919;-45
2024/01/03 02:28:52;;;;;;;;;;;;;;;21.03;39.82;98470.91;5138394;27;19978;-46
2024/01/03 02:31:17;;;;;;;;;;;;;;;21.01;39.82;98489.22;5137986;27;19912;-46
2024/01/03 02:33:43;;;;;;;;;;;;;;;20.98;39.76;98484.28;5138629;27;19920;-46
2024/01/03 02:36:08;;;;;;;;;;;;;;;20.97;39.69;98493.47;5137117;27;19919;-46
2024/01/03 02:38:33;;;;;;;;;;;;;;;20.95;39.63;98501.00;5139683;27;20330;-48
2024/01/03 02:40:58;;;;;;;;;;;;;;;20.93;39.66;98503.09;5135728;27;19911;-48
2024/01/03 02:43:23;;;;;;;;;;;;;;;20.92;39.83;98529.31;5136984;27;19911;-47
2024/01/03 02:45:49;;;;;;;;;;;;;;;20.91;39.66;98516.03;5140636;27;19923;-48
2024/01/03 02:48:14;;;;;;;;;;;;;;;20.90;39.47;98525.22;5140600;27;19934;-46
2024/01/03 02:50:43;;;;;;;;;;;;;;;20.88;39.79;98543.53;5137736;27;19916;-47
2024/01/03 02:53:09;;;;;;;;;;;;;;;20.86;39.84;98540.25;5133005;27;20146;-49
2024/01/03 02:55:34;;;;;;;;;;;;;;;20.84;39.81;98545.88;5137851;27;19916;-46
2024/01/03 02:57:59;;;;;;;;;;;;;;;20.82;39.61;98533.69;5135543;27;19934;-46
2024/01/03 03:00:24;;;;;;;;;;;;;;;20.80;39.90;98547.41;5137687;27;19933;-45
2024/01/03 03:02:49;;;;;;;;;;;;;;;20.77;39.97;98534.38;5133422;27;19916;-46
2024/01/03 03:05:15;;;;;;;;;;;;;;;20.77;39.69;98552.47;5134440;27;19968;-47
2024/01/03 03:07:40;;;;;;;;;;;;;;;20.76;39.73;98548.13;5135923;27;20388;-49
2024/01/03 03:10:07;;;;;;;;;;;;;;;20.74;39.75;98551.06;5142949;27;20433;-46
2024/01/03 03:12:33;;;;;;;;;;;;;;;20.73;40.06;98544.03;5135212;28;19934;-47
2024/01/03 03:14:58;;;;;;;;;;;;;;;20.71;39.94;98555.06;5133445;28;19912;-45
2024/01/03 03:17:23;;;;;;;;;;;;;;;20.70;39.67;98553.44;5139192;28;19915;-46
2024/01/03 03:19:48;;;;;;;;;;;;;;;20.70;39.64;98560.72;5135451;28;19926;-47
2024/01/03 03:22:13;;;;;;;;;;;;;;;20.68;39.97;98565.50;5138105;28;19961;-46
2024/01/03 03:24:38;;;;;;;;;;;;;;;20.68;39.99;98557.41;5143233;28;19947;-46
2024/01/03 03:27:04;;;;;;;;;;;;;;;20.66;39.92;98567.63;5138457;28;20466;-45
2024/01/03 03:29:29;;;;;;;;;;;;;;;20.66;39.75;98556.84;5134164;28;19920;-45
2024/01/03 03:31:54;;;;;;;;;;;;;;;20.65;39.81;98574.09;5133513;28;19918;-47
2024/01/03 03:34:20;;;;;;;;;;;;;;;20.63;39.73;98582.44;5132258;28;20460;-48
2024/01/03 03:36:45;;;;;;;;;;;;;;;20.62;39.86;98580.78;5134092;28;19926;-47
2024/01/03 03:39:10;;;;;;;;;;;;;;;20.60;39.84;98582.91;5138474;28;19911;-48
2024/01/03 03:41:36;;;;;;;;;;;;;;;20.60;39.84;98585.63;5140663;28;19920;-46
2024/01/03 03:44:01;;;;;;;;;;;;;;;20.58;39.71;98587.72;5135439;27;19919;-46
2024/01/03 03:46:26;;;;;;;;;;;;;;;20.56;39.66;98576.34;5131403;28;19918;-50
2024/01/03 03:48:51;;;;;;;;;;;;;;;20.55;39.57;98581.97;5132918;28;19919;-46
2024/01/03 03:51:18;;;;;;;;;;;;;;;20.54;39.71;98607.31;5132493;28;19971;-47
2024/01/03 03:53:43;;;;;;;;;;;;;;;20.53;39.78;98603.81;5135537;28;19962;-50
2024/01/03 03:56:08;;;;;;;;;;;;;;;20.51;39.56;98599.69;5142810;28;19915;-47
2024/01/03 03:58:33;;;;;;;;;;;;;;;20.50;39.72;98598.03;5134396;28;19916;-48
2024/01/03 04:00:58;;;;;;;;;;;;;;;20.48;39.79;98603.69;5137820;28;19922;-50
2024/01/03 04:03:24;;;;;;;;;;;;;;;20.45;39.82;98596.84;5134674;28;20362;-48
2024/01/03 04:05:49;;;;;;;;;;;;;;;20.45;39.50;98614.91;5131872;28;19951;-47
2024/01/03 04:08:14;;;;;;;;;;;;;;;20.44;39.69;98611.41;5136180;28;19954;-46
2024/01/03 04:10:39;;;;;;;;;;;;;;;20.43;39.61;98606.22;5138649;28;19916;-46
2024/01/03 04:13:05;;;;;;;;;;;;;;;20.42;39.70;98613.50;5138811;28;19916;-47
2024/01/03 04:15:30;;;;;;;;;;;;;;;20.41;39.80;98608.34;5132011;28;19912;-48
2024/01/03 04:17:55;;;;;;;;;;;;;;;20.40;39.83;98618.31;5145569;27;19947;-47
2024/01/03 04:20:20;;;;;;;;;;;;;;;20.38;39.63;98625.81;5139909;27;19915;-47
2024/01/03 04:22:46;;;;;;;;;;;;;;;20.37;39.91;98624.19;5139278;27;19911;-47
2024/01/03 04:25:11;;;;;;;;;;;;;;;20.36;39.91;98630.63;5139288;27;19976;-46
2024/01/03 04:27:36;;;;;;;;;;;;;;;20.35;40.19;98623.59;5130507;27;19949;-50
2024/01/03 04:30:02;;;;;;;;;;;;;;;20.36;40.17;98627.13;5140617;27;19915;-48
2024/01/03 04:32:28;;;;;;;;;;;;;;;20.34;39.92;98623.81;5142099;27;19911;-49
2024/01/03 04:34:53;;;;;;;;;;;;;;;20.33;40.14;98623.00;5127163;27;20048;-50
2024/01/03 04:37:19;;;;;;;;;;;;;;;20.33;39.83;98628.41;5138032;27;20411;-51
2024/01/03 04:39:44;;;;;;;;;;;;;;;20.33;40.13;98638.38;5142777;27;19919;-47
2024/01/03 04:42:09;;;;;;;;;;;;;;;20.31;39.90;98627.81;5142059;27;19915;-47
2024/01/03 04:44:34;;;;;;;;;;;;;;;20.31;40.01;98635.91;5128681;27;19911;-51
2024/01/03 04:46:59;;;;;;;;;;;;;;;20.29;40.14;98640.72;5138835;27;19918;-50
2024/01/03 04:49:25;;;;;;;;;;;;;;;20.30;40.15;98636.94;5144461;27;19911;-48
2024/01/03 04:51:50;;;;;;;;;;;;;;;20.29;39.86;98642.59;5137432;27;19916;-48
2024/01/03 04:54:15;;;;;;;;;;;;;;;20.28;40.11;98647.16;5138304;27;19966;-49
2024/01/03 04:56:40;;;;;;;;;;;;;;;20.26;40.09;98651.97;5138782;27;19962;-45
2024/01/03 04:59:05;;;;;;;;;;;;;;;20.25;39.97;98654.91;5144239;27;20305;-50
2024/01/03 05:01:31;;;;;;;;;;;;;;;20.23;40.01;98647.88;5136319;27;19916;-48
2024/01/03 05:03:56;;;;;;;;;;;;;;;20.22;39.98;98658.91;5138767;27;19912;-46
2024/01/03 05:06:21;;;;;;;;;;;;;;;20.21;40.02;98652.66;5137816;27;19915;-49
2024/01/03 05:08:46;;;;;;;;;;;;;;;20.19;40.27;98648.56;5137306;27;19911;-48
2024/01/03 05:11:11;;;;;;;;;;;;;;;20.18;40.13;98655.84;5130723;27;19916;-49
2024/01/03 05:13:36;;;;;;;;;;;;;;;20.18;40.46;98652.31;5139069;27;19915;-48
2024/01/03 05:16:02;;;;;;;;;;;;;;;20.17;40.33;98651.47;5137585;27;19961;-47
2024/01/03 05:18:27;;;;;;;;;;;;;;;20.15;40.34;98653.59;5138159;27;20488;-47
2024/01/03 05:20:52;;;;;;;;;;;;;;;20.16;40.53;98659.81;5139222;27;19915;-48
2024/01/03 05:23:17;;;;;;;;;;;;;;;20.15;40.37;98661.69;5139187;27;19972;-46
2024/01/03 05:25:43;;;;;;;;;;;;;;;20.15;40.58;98661.69;5130520;27;19919;-48
2024/01/03 05:28:08;;;;;;;;;;;;;;;20.14;40.40;98665.44;5131554;27;19933;-46
2024/01/03 05:30:33;;;;;;;;;;;;;;;20.14;40.43;98653.84;5132534;27;19912;-47
2024/01/03 05:32:58;;;;;;;;;;;;;;;20.14;40.35;98665.44;5137872;27;19961;-47
2024/01/03 05:35:23;;;;;;;;;;;;;;;20.13;40.68;98666.47;5141783;27;19912;-48
2024/01/03 05:37:50;;;;;;;;;;;;;;;20.14;40.61;98662.75;5136817;27;19920;-46
2024/01/03 05:40:18;;;;;;;;;;;;;;;20.14;40.62;98670.84;5137626;27;19919;-48
2024/01/03 05:42:43;;;;;;;;;;;;;;;20.14;40.47;98661.94;5144372;27;19918;-45
2024/01/03 05:45:08;;;;;;;;;;;;;;;20.15;40.48;98668.97;5140045;27;19912;-49
2024/01/03 05:47:33;;;;;;;;;;;;;;;20.15;40.40;98661.69;5133011;27;19923;-46
2024/01/03 05:49:59;;;;;;;;;;;;;;;20.15;40.45;98659.00;5133318;27;19936;-46
2024/01/03 05:52:24;;;;;;;;;;;;;;;20.16;40.87;98660.63;5136494;27;19922;-45
2024/01/03 05:54:49;;;;;;;;;;;;;;;20.18;40.55;98663.94;5114636;27;19916;-47
2024/01/03 05:57:14;;;;;;;;;;;;;;;20.18;40.57;98657.72;5133678;27;19919;-46
2024/01/03 05:59:40;;;;;;;;;;;;;;;20.21;40.82;98665.34;5134347;27;19980;-47
2024/01/03 06:02:05;;;;;;;;;;;;;;;20.22;40.97;98667.81;5138604;27;19980;-49
2024/01/03 06:04:30;;;;;;;;;;;;;;;20.24;41.02;98675.66;5131280;27;19931;-46
2024/01/03 06:06:55;;;;;;;;;;;;;;;20.26;40.96;98673.53;5137470;27;20094;-46
2024/01/03 06:09:20;;;;;;;;;;;;;;;20.29;41.00;98683.06;5122560;27;19915;-47
2024/01/03 06:11:46;;;;;;;;;;;;;;;20.30;41.11;98680.13;5131900;27;19927;-47
2024/01/03 06:14:11;;;;;;;;;;;;;;;20.33;41.07;98670.75;5134280;27;19918;-45
2024/01/03 06:16:36;;;;;;;;;;;;;;;20.35;41.35;98677.59;5131584;27;19916;-45
2024/01/03 06:19:01;;;;;;;;;;;;;;;20.37;41.40;98680.84;5133874;27;19922;-46
2024/01/03 06:21:26;;;;;;;;;;;;;;;20.39;41.17;98681.47;5134270;27;19911;-47
2024/01/03 06:23:52;;;;;;;;;;;;;;;20.44;41.20;98688.84;5133814;27;19915;-50
2024/01/03 06:26:17;;;;;;;;;;;;;;;20.45;41.38;98688.63;5135247;27;19911;-46
2024/01/03 06:28:42;;;;;;;;;;;;;;;20.49;41.54;98680.09;5133409;27;20258;-47
2024/01/03 06:31:07;;;;;;;;;;;;;;;20.53;41.13;98681.28;5129625;27;19926;-48
2024/01/03 06:33:33;;;;;;;;;;;;;;;20.54;41.39;98681.03;5130564;27;19927;-46
2024/01/03 06:35:59;;;;;;;;;;;;;;;20.58;41.36;98681.38;5131592;27;19920;-46
2024/01/03 06:38:24;;;;;;;;;;;;;;;20.60;41.25;98681.97;5132712;27;20344;-50
2024/01/03 06:40:49;;;;;;;;;;;;;;;20.62;41.20;98688.78;5132333;27;19923;-47
2024/01/03 06:43:15;;;;;;;;;;;;;;;20.65;41.07;98680.22;5131495;27;19912;-46
2024/01/03 06:45:40;;;;;;;;;;;;;;;20.68;41.40;98682.44;5132446;27;20295;-48
2024/01/03 06:48:05;;;;;;;;;;;;;;;20.72;41.15;98699.00;5130876;27;19912;-50
2024/01/03 06:50:30;;;;;;;;;;;;;;;20.75;40.90;98698.53;5130099;27;20262;-46
2024/01/03 06:52:56;;;;;;;;;;;;;;;20.78;40.92;98697.25;5132098;27;19919;-46
2024/01/03 06:55:21;;;;;;;;;;;;;;;20.79;40.87;98691.63;5130819;27;20409;-47
2024/01/03 06:57:48;;;;;;;;;;;;;;;20.82;40.86;98695.72;5133016;27;19983;-46
2024/01/03 07:00:16;;;;;;;;;;;;;;;20.84;41.04;98688.22;5133747;27;20280;-46
2024/01/03 07:02:41;;;;;;;;;;;;;;;20.87;40.95;98707.47;5133270;27;19912;-51
2024/01/03 07:05:06;;;;;;;;;;;;;;;20.88;41.13;98722.63;5129989;27;19912;-47
2024/01/03 07:07:31;;;;;;;;;;;;;;;20.91;41.00;98718.63;5129903;27;19912;-48
2024/01/03 07:09:57;;;;;;;;;;;;;;;20.94;40.68;98716.28;5129689;27;19973;-48
2024/01/03 07:12:22;;;;;;;;;;;;;;;20.95;40.78;98715.22;5132726;28;20188;-47
2024/01/03 07:14:47;;;;;;;;;;;;;;;20.97;40.66;98723.91;5132145;28;19927;-49
2024/01/03 07:17:14;;;;;;;;;;;;;;;21.02;40.67;98727.78;5130762;28;20003;-47
2024/01/03 07:19:39;;;;;;;;;;;;;;;21.04;40.89;98725.69;5131929;28;19966;-46
2024/01/03 07:22:04;;;;;;;;;;;;;;;21.06;40.83;98740.56;5129376;28;20949;-50
2024/01/03 07:24:29;;;;;;;;;;;;;;;21.07;40.79;98720.63;5128006;28;19927;-50
2024/01/03 07:26:54;;;;;;;;;;;;;;;21.10;40.73;98722.84;5135901;28;19933;-46
2024/01/03 07:29:20;;;;;;;;;;;;;;;21.13;40.49;98718.84;5132630;28;20014;-51
2024/01/03 07:31:45;;;;;;;;;;;;;;;21.15;40.60;98717.56;5132946;28;19979;-49
2024/01/03 07:34:11;;;;;;;;;;;;;;;21.17;40.31;98717.31;5130970;28;20445;-47
2024/01/03 07:36:36;;;;;;;;;;;;;;;21.19;40.39;98713.31;5133003;28;19912;-48
2024/01/03 07:39:03;;;;;;;;;;;;;;;21.22;40.61;98717.44;5137478;28;19916;-49
2024/01/03 07:41:28;;;;;;;;;;;;;;;21.21;40.58;98715.78;5135934;28;19932;-45
2024/01/03 07:43:53;;;;;;;;;;;;;;;21.21;40.59;98722.00;5135291;28;19919;-47
2024/01/03 07:46:19;;;;;;;;;;;;;;;21.20;40.54;98738.47;5142516;28;20377;-48
2024/01/03 07:48:44;;;;;;;;;;;;;;;21.20;40.42;98727.66;5135445;28;19916;-46
2024/01/03 07:51:12;;;;;;;;;;;;;;;21.20;40.54;98733.06;5136240;27;19916;-46
2024/01/03 07:53:37;;;;;;;;;;;;;;;21.21;40.29;98740.94;5142949;27;19915;-48
2024/01/03 07:56:03;;;;;;;;;;;;;;;21.21;40.15;98748.22;5144999;27;19915;-45
2024/01/03 07:58:29;;;;;;;;;;;;;;;21.21;40.30;98745.53;5139872;27;19923;-49
2024/01/03 08:00:54;;;;;;;;;;;;;;;21.22;40.23;98744.44;5144059;27;19926;-46
2024/01/03 08:03:19;;;;;;;;;;;;;;;21.24;40.15;98745.06;5141658;27;20143;-44
2024/01/03 08:05:45;;;;;;;;;;;;;;;21.25;40.34;98752.09;5137306;27;19922;-46
2024/01/03 08:08:10;;;;;;;;;;;;;;;21.25;40.32;98745.88;5141963;27;19916;-48
2024/01/03 08:10:35;;;;;;;;;;;;;;;21.26;40.06;98751.03;5138053;27;19912;-47
2024/01/03 08:13:00;;;;;;;;;;;;;;;21.28;39.92;98764.28;5117821;27;19915;-50
2024/01/03 08:15:25;;;;;;;;;;;;;;;21.29;39.96;98761.38;5129214;27;19954;-48
2024/01/03 08:17:51;;;;;;;;;;;;;;;21.30;40.11;98763.00;5137527;27;19920;-45
2024/01/03 08:20:16;;;;;;;;;;;;;;;21.31;39.95;98771.94;5136226;27;19919;-50
2024/01/03 08:22:41;;;;;;;;;;;;;;;21.32;40.15;98774.44;5132953;27;19931;-46
2024/01/03 08:25:07;;;;;;;;;;;;;;;21.31;39.98;98761.13;5132360;27;20409;-47
2024/01/03 08:27:36;;;;;;;;;;;;;;;21.31;40.05;98783.56;5135084;27;19990;-48
2024/01/03 08:30:01;;;;;;;;;;;;;;;21.34;39.77;98782.31;5127455;27;20001;-48
2024/01/03 08:32:26;;;;;;;;;;;;;;;21.34;40.05;98787.72;5134301;27;19922;-46
2024/01/03 08:34:51;;;;;;;;;;;;;;;21.35;40.03;98782.06;5130700;27;19916;-49
2024/01/03 08:37:16;;;;;;;;;;;;;;;21.36;40.19;98789.13;5126253;27;20513;-51
2024/01/03 08:39:42;;;;;;;;;;;;;;;21.37;40.04;98789.97;5133879;27;20002;-50
2024/01/03 08:42:07;;;;;;;;;;;;;;;21.38;40.26;98797.00;5132361;27;19980;-46
2024/01/03 08:44:32;;;;;;;;;;;;;;;21.40;40.17;98792.19;5112327;27;19979;-46
2024/01/03 08:46:58;;;;;;;;;;;;;;;21.40;40.15;98800.28;5139022;27;19955;-47
2024/01/03 08:49:23;;;;;;;;;;;;;;;21.41;40.21;98794.66;5129285;27;19918;-49
2024/01/03 08:51:48;;;;;;;;;;;;;;;21.42;40.02;98809.00;5130310;27;19915;-49
2024/01/03 08:54:17;;;;;;;;;;;;;;;21.42;40.25;98815.22;5130582;27;19911;-47
2024/01/03 08:56:42;;;;;;;;;;;;;;;21.44;39.92;98817.69;5133235;27;19924;-46
2024/01/03 08:59:07;;;;;;;;;;;;;;;21.43;40.03;98816.88;5134726;27;20359;-46
2024/01/03 09:01:35;;;;;;;;;;;;;;;21.45;40.17;98822.03;5131470;27;19938;-48
2024/01/03 09:04:00;;;;;;;;;;;;;;;21.46;39.83;98818.28;5130225;27;19980;-46
2024/01/03 09:06:26;;;;;;;;;;;;;;;21.47;40.21;98825.34;5134969;27;19923;-48
2024/01/03 09:08:51;;;;;;;;;;;;;;;21.46;39.93;98816.41;5135973;27;19920;-48
2024/01/03 09:11:24;;;;;;;;;;;;;;;21.46;40.00;98821.00;5118437;27;19919;-48
2024/01/03 09:13:49;;;;;;;;;;;;;;;21.49;39.77;98823.19;5137762;27;19908;-48
2024/01/03 09:16:16;;;;;;;;;;;;;;;21.49;39.77;98820.50;5137154;27;19969;-45
2024/01/03 09:18:42;;;;;;;;;;;;;;;21.49;39.91;98830.50;5137117;27;19923;-47
2024/01/03 09:21:07;;;;;;;;;;;;;;;21.50;39.88;98829.47;5134357;27;19923;-47
2024/01/03 09:23:32;;;;;;;;;;;;;;;21.49;39.79;98838.59;5120128;27;19919;-45
2024/01/03 09:25:57;;;;;;;;;;;;;;;21.49;40.14;98842.13;5131492;27;19944;-46
2024/01/03 09:28:23;;;;;;;;;;;;;;;21.49;39.70;98844.81;5138457;27;20001;-49
2024/01/03 09:30:48;;;;;;;;;;;;;;;21.50;40.01;98846.50;5133591;27;19939;-46
2024/01/03 09:33:13;;;;;;;;;;;;;;;21.50;39.77;98845.69;5136925;27;19934;-45
2024/01/03 09:35:38;;;;;;;;;;;;;;;21.48;40.11;98843.19;5137590;27;19916;-46
2024/01/03 09:38:04;;;;;;;;;;;;;;;21.48;39.96;98843.19;5138577;27;19916;-48
2024/01/03 09:40:31;;;;;;;;;;;;;;;21.48;40.01;98851.31;5134743;27;19951;-50
2024/01/03 09:42:56;;;;;;;;;;;;;;;21.49;40.18;98857.53;5137694;27;19914;-48
2024/01/03 09:45:21;;;;;;;;;;;;;;;21.50;40.05;98853.78;5124472;27;20354;-46
2024/01/03 09:47:47;;;;;;;;;;;;;;;21.50;39.87;98851.91;5125737;27;19911;-46
2024/01/03 09:50:12;;;;;;;;;;;;;;;21.50;39.94;98857.31;5138503;27;19917;-48
2024/01/03 09:52:37;;;;;;;;;;;;;;;21.50;39.85;98859.19;5133027;27;19919;-45
2024/01/03 09:55:02;;;;;;;;;;;;;;;21.50;40.17;98853.78;5132823;27;19912;-45
2024/01/03 09:57:28;;;;;;;;;;;;;;;21.49;40.15;98858.34;5137170;27;19923;-45
2024/01/03 09:59:55;;;;;;;;;;;;;;;21.49;39.90;98857.53;5125031;27;19911;-44
2024/01/03 10:02:25;;;;;;;;;;;;;;;21.50;40.22;98853.78;5127530;27;19912;-46
2024/01/03 10:04:50;;;;;;;;;;;;;;;21.49;40.15;98861.06;5131984;27;19959;-47
2024/01/03 10:07:15;;;;;;;;;;;;;;;21.49;39.98;98857.53;5115935;27;19915;-46
2024/01/03 10:09:41;;;;;;;;;;;;;;;21.48;39.98;98864.00;5133863;27;20049;-45
2024/01/03 10:12:17;;;;;;;;;;;;;;;21.49;40.01;98860.22;5133533;27;19915;-45
2024/01/03 10:14:42;;;;;;;;;;;;;;;21.48;40.22;98862.13;5128429;27;19995;-45
2024/01/03 10:17:07;;;;;;;;;;;;;;;21.48;40.32;98864.00;5132749;27;19923;-46
2024/01/03 10:19:33;;;;;;;;;;;;;;;21.48;40.26;98869.41;5138325;27;19933;-45
2024/01/03 10:21:59;;;;;;;;;;;;;;;21.46;40.13;98861.53;5129744;27;20445;-45
2024/01/03 10:24:24;;;;;;;;;;;;;;;21.44;40.34;98864.47;5134861;27;19938;-44
2024/01/03 10:26:50;;;;;;;;;;;;;;;21.43;40.01;98868.22;5134661;27;20581;-45
2024/01/03 10:29:18;;;;;;;;;;;;;;;21.44;40.31;98872.56;5140666;27;19916;-45
2024/01/03 10:31:44;;;;;;;;;;;;;;;21.45;40.21;98868.00;5129039;27;20031;-44
2024/01/03 10:34:15;;;;;;;;;;;;;;;21.44;39.95;98877.16;5136325;27;19912;-47
2024/01/03 10:36:41;;;;;;;;;;;;;;;21.44;40.00;98879.88;5138031;27;19990;-47
2024/01/03 10:39:06;;;;;;;;;;;;;;;21.44;40.28;98886.09;5134439;27;19923;-46
2024/01/03 10:41:31;;;;;;;;;;;;;;;21.45;40.23;98878.81;5123468;27;19923;-44
2024/01/03 10:44:01;;;;;;;;;;;;;;;21.44;40.13;98885.28;5132124;27;19915;-47
2024/01/03 10:46:27;;;;;;;;;;;;;;;21.44;40.10;98867.16;5135340;27;19911;-46
2024/01/03 10:48:52;;;;;;;;;;;;;;;21.48;40.35;98877.53;5114843;27;19919;-47
2024/01/03 10:51:17;;;;;;;;;;;;;;;21.47;40.11;98871.28;5134565;27;19912;-48
2024/01/03 10:53:43;;;;;;;;;;;;;;;21.48;40.15;98875.63;5125216;27;20007;-46
2024/01/03 10:56:09;;;;;;;;;;;;;;;21.49;40.00;98874.56;5123831;27;19916;-45
2024/01/03 10:58:34;;;;;;;;;;;;;;;21.51;39.95;98875.19;5132251;27;19916;-49
2024/01/03 11:01:22;;;;;;;;;;;;;;;21.53;40.07;98869.53;5136015;27;19920;-50
2024/01/03 11:03:50;;;;;;;;;;;;;;;21.56;40.06;98874.47;5121444;27;19920;-49
2024/01/03 11:06:19;;;;;;;;;;;;;;;21.57;39.89;98882.34;5125260;27;20018;-46
2024/01/03 11:08:48;;;;;;;;;;;;;;;21.60;39.93;98879.16;5133712;27;19919;-46
2024/01/03 11:11:14;;;;;;;;;;;;;;;21.64;39.81;98879.53;5133176;27;19907;-47
2024/01/03 11:13:40;;;;;;;;;;;;;;;21.67;40.00;98879.88;5124597;28;19912;-50
2024/01/03 11:16:05;;;;;;;;;;;;;;;21.69;40.10;98879.63;5136587;28;19922;-47
2024/01/03 11:18:40;;;;;;;;;;;;;;;21.71;39.76;98889.16;5131645;28;19916;-46
2024/01/03 11:21:21;;;;;;;;;;;;;;;21.74;40.08;98887.03;5115130;28;19916;-49
2024/01/03 11:23:46;;;;;;;;;;;;;;;21.76;39.95;98893.88;5138392;28;20320;-50
2024/01/03 11:26:11;;;;;;;;;;;;;;;21.78;40.19;98888.22;5134048;27;19990;-46
2024/01/03 11:28:36;;;;;;;;;;;;;;;21.81;40.29;98891.28;5130764;27;19915;-50
2024/01/03 11:31:02;;;;;;;;;;;;;;;21.84;40.06;98882.69;5137815;27;20365;-48
2024/01/03 11:33:33;;;;;;;;;;;;;;;21.85;40.42;98887.03;5126832;27;19923;-48
2024/01/03 11:35:58;;;;;;;;;;;;;;;21.88;40.15;98880.34;5136220;27;20431;-48
2024/01/03 11:38:43;;;;;;;;;;;;;;;21.90;40.16;98872.78;5131887;27;19916;-46
2024/01/03 11:41:18;;;;;;;;;;;;;;;21.43;40.26;98800.66;5133134;27;19972;-48
2024/01/03 11:43:43;;;;;;;;;;;;;;;21.95;40.16;98875.59;5137457;27;19915;-50
2024/01/03 11:46:09;;;;;;;;;;;;;;;21.98;40.25;98868.91;5132409;27;19919;-48
2024/01/03 11:48:34;;;;;;;;;;;;;;;22.00;40.11;98872.19;5130132;27;19915;-46
2024/01/03 11:50:59;;;;;;;;;;;;;;;22.04;40.10;98878.75;5131642;27;19916;-47
2024/01/03 11:53:24;;;;;;;;;;;;;;;22.05;39.96;98875.03;5140014;27;19946;-49
2024/01/03 11:55:51;;;;;;;;;;;;;;;22.06;40.32;98882.06;5136286;27;19972;-46
2024/01/03 11:58:16;;;;;;;;;;;;;;;22.10;39.99;98877.81;5131762;27;20364;-46
2024/01/03 12:00:41;;;;;;;;;;;;;;;22.12;40.02;98868.41;5134287;27;19912;-50
2024/01/03 12:03:06;;;;;;;;;;;;;;;22.16;40.16;98875.00;5137415;27;19911;-49
2024/01/03 12:05:31;;;;;;;;;;;;;;;22.18;40.13;98870.19;5138649;27;19972;-49
2024/01/03 12:07:57;;;;;;;;;;;;;;;22.22;40.10;98873.25;5115146;27;19919;-48
2024/01/03 12:10:23;;;;;;;;;;;;;;;22.24;39.70;98862.97;5128734;27;19912;-49
2024/01/03 12:12:51;;;;;;;;;;;;;;;22.27;39.98;98859.81;5133936;27;19915;-54
2024/01/03 12:15:27;;;;;;;;;;;;;;;22.30;39.88;98863.91;5136444;27;19916;-52
2024/01/03 12:17:53;;;;;;;;;;;;;;;22.35;39.82;98867.53;5134691;27;20157;-54
2024/01/03 12:20:18;;;;;;;;;;;;;;;22.39;40.02;98863.28;5134868;27;19962;-53
2024/01/03 12:22:43;;;;;;;;;;;;;;;22.41;39.54;98855.75;5127848;27;19918;-50
2024/01/03 12:25:18;;;;;;;;;;;;;;;22.45;39.68;98854.19;5140919;27;19916;-54
2024/01/03 12:27:44;;;;;;;;;;;;;;;22.49;39.76;98846.41;5128499;27;20006;-52
2024/01/03 12:30:13;;;;;;;;;;;;;;;22.53;39.61;98849.47;5139246;27;19915;-50
2024/01/03 12:32:38;;;;;;;;;;;;;;;22.57;39.65;98851.44;5140898;27;19927;-54
2024/01/03 12:35:04;;;;;;;;;;;;;;;22.61;39.30;98854.50;5136268;27;19973;-55
2024/01/03 12:37:29;;;;;;;;;;;;;;;22.65;39.33;98850.22;5133901;27;19932;-52
2024/01/03 12:39:54;;;;;;;;;;;;;;;22.68;39.25;98850.56;5138851;27;19937;-55